createdAt,value
2023-05-04T00:08:08.265Z,8.18
2023-05-04T00:18:10.348Z,8.07
2023-05-04T00:28:12.695Z,7.97
2023-05-04T00:38:16.910Z,7.92
2023-05-04T00:48:19.864Z,7.81
2023-05-04T00:58:22.743Z,7.70
2023-05-04T01:08:31.299Z,7.57
2023-05-04T01:18:33.550Z,7.41
2023-05-04T01:28:49.804Z,7.35
2023-05-04T01:38:55.348Z,7.33
2023-05-04T01:48:57.470Z,7.24
2023-05-04T01:59:00.042Z,7.18
2023-05-04T02:09:03.787Z,7.09
2023-05-04T02:19:06.109Z,6.99
2023-05-04T02:29:08.381Z,6.87
2023-05-04T02:39:10.775Z,6.81
2023-05-04T02:49:12.968Z,6.75
2023-05-04T02:59:15.627Z,6.70
2023-05-04T03:09:18.082Z,6.59
2023-05-04T03:19:22.396Z,6.48
2023-05-04T03:29:24.549Z,6.43
2023-05-04T03:39:26.681Z,6.43
2023-05-04T03:49:29.069Z,6.37
2023-05-04T03:59:31.442Z,6.37
2023-05-04T04:09:33.632Z,6.37
2023-05-04T04:19:36.097Z,6.39
2023-05-04T04:29:39.932Z,6.49
2023-05-04T04:39:42.744Z,6.53
2023-05-04T04:49:45.335Z,6.67
2023-05-04T04:59:47.525Z,6.87
2023-05-04T05:09:49.846Z,7.12
2023-05-04T05:19:52.819Z,7.33
2023-05-04T05:29:55.073Z,7.63
2023-05-04T05:39:57.441Z,7.97
2023-05-04T05:49:59.844Z,8.36
2023-05-04T06:00:02.213Z,8.75
2023-05-04T06:10:05.358Z,9.27
2023-05-04T06:20:08.425Z,9.90
2023-05-04T06:30:11.247Z,10.59
2023-05-04T06:40:14.407Z,11.28
2023-05-04T06:50:20.146Z,11.98
2023-05-04T07:00:24.724Z,12.59
2023-05-04T07:10:27.459Z,13.18
2023-05-04T07:20:30.318Z,13.87
2023-05-04T07:30:33.364Z,14.41
2023-05-04T07:40:37.273Z,15.08
2023-05-04T07:50:40.751Z,15.70
2023-05-04T08:00:44.351Z,16.01
2023-05-04T08:10:46.948Z,16.37
2023-05-04T08:20:49.534Z,16.81
2023-05-04T08:30:52.093Z,17.47
2023-05-04T08:40:55.470Z,17.92
2023-05-04T08:50:58.484Z,18.20
2023-05-04T09:01:01.605Z,18.69
2023-05-04T09:11:04.738Z,19.16
2023-05-04T09:21:07.523Z,19.66
2023-05-04T09:31:12.528Z,20.15
2023-05-04T09:41:15.052Z,20.40
2023-05-04T09:51:22.420Z,20.61
2023-05-04T10:01:30.040Z,20.97
2023-05-04T10:11:32.745Z,21.54
2023-05-04T10:21:45.558Z,21.74
2023-05-04T10:31:48.675Z,22.24
2023-05-04T10:42:02.448Z,22.65
2023-05-04T10:52:08.738Z,23.16
2023-05-04T11:02:11.872Z,23.61
2023-05-04T11:12:15.299Z,24.16
2023-05-04T11:22:20.711Z,24.40
2023-05-04T11:32:24.528Z,24.62
2023-05-04T11:42:27.339Z,25.02
2023-05-04T11:52:31.531Z,25.56
2023-05-04T12:02:34.608Z,25.70
2023-05-04T12:12:39.098Z,26.06
2023-05-04T12:22:41.841Z,26.55
2023-05-04T12:32:45.110Z,26.91
2023-05-04T12:42:48.449Z,27.09
2023-05-04T12:52:51.229Z,27.69
2023-05-04T13:02:54.246Z,28.02
2023-05-04T13:12:57.146Z,28.53
2023-05-04T13:23:10.970Z,28.80
2023-05-04T13:33:27.810Z,29.16
2023-05-04T13:43:31.244Z,29.56
2023-05-04T13:53:35.911Z,29.72
2023-05-04T14:03:38.518Z,29.97
2023-05-04T14:13:40.896Z,30.14
2023-05-04T14:23:45.139Z,31.02
2023-05-04T14:33:48.092Z,30.80
2023-05-04T14:43:50.381Z,30.81
2023-05-04T14:53:53.463Z,30.25
2023-05-04T15:03:57.195Z,30.43
2023-05-04T15:14:00.177Z,30.37
2023-05-04T15:24:03.420Z,29.61
2023-05-04T15:34:05.896Z,28.88
2023-05-04T15:44:08.983Z,28.68
2023-05-04T15:54:11.716Z,28.10
2023-05-04T16:04:15.153Z,27.42
2023-05-04T16:14:17.762Z,27.33
2023-05-04T16:24:20.404Z,27.55
2023-05-04T16:34:22.856Z,28.76
2023-05-04T16:44:25.488Z,27.95
2023-05-04T16:54:27.997Z,26.52
2023-05-04T17:04:31.574Z,25.85
2023-05-04T17:14:35.458Z,24.74
2023-05-04T17:24:37.973Z,24.12
2023-05-04T17:34:40.354Z,24.02
2023-05-04T17:44:42.735Z,24.40
2023-05-04T17:54:45.037Z,24.56
2023-05-04T18:04:47.486Z,24.42
2023-05-04T18:14:51.203Z,23.33
2023-05-04T18:24:53.824Z,22.21
2023-05-04T18:34:58.327Z,21.48
2023-05-04T18:45:01.198Z,20.96
2023-05-04T18:55:04.571Z,20.30
2023-05-04T19:05:07.299Z,19.75
2023-05-04T19:15:10.826Z,19.30
2023-05-04T19:25:23.318Z,19.07
2023-05-04T19:35:36.507Z,18.85
2023-05-04T19:45:39.484Z,18.51
2023-05-04T19:55:41.766Z,18.29
2023-05-04T20:05:44.442Z,18.03
2023-05-04T20:15:47.116Z,17.74
2023-05-04T20:25:49.628Z,17.47
2023-05-04T20:35:51.809Z,17.17
2023-05-04T20:45:54.297Z,16.81
2023-05-04T20:55:57.074Z,16.42
2023-05-04T21:05:59.177Z,16.12
2023-05-04T21:16:01.808Z,15.89
2023-05-04T21:26:04.712Z,15.68
2023-05-04T21:36:13.364Z,15.55
2023-05-04T21:46:15.847Z,15.41
2023-05-04T21:56:18.021Z,15.20
2023-05-04T22:06:21.878Z,14.88
2023-05-04T22:16:24.847Z,14.60
2023-05-04T22:26:27.343Z,14.35
2023-05-04T22:36:29.741Z,14.05
2023-05-04T22:46:32.044Z,13.77
2023-05-04T22:56:34.376Z,13.54
2023-05-04T23:06:38.857Z,13.30
2023-05-04T23:16:41.071Z,13.11
2023-05-04T23:26:43.305Z,12.97
2023-05-04T23:36:45.933Z,12.84
2023-05-04T23:46:48.176Z,12.68
2023-05-04T23:56:50.425Z,12.53
